KSLE/SLE METAR and TAF weather

Enter ICAO airport designator
Station Type Date Time Source
KSLE METAR 2019/05/25 08:56 UTC NOAA

KSLE 250856Z AUTO 18005KT 10SM OVC035 10/07 A3003 RMK AO2 RAE05 SLP169 P0000 60000 T01000067 56001


Station Type Date Time Source
KSLE Decoded METAR 2019/05/25 08:56 UTC NOAA

SALEM MCNARY FIELD, OR, United States (KSLE) 44-54N 123-00W 59M
May 25, 2019 - 04:56 AM EDT / 2019.05.25 0856 UTC
Wind: from the S (180 degrees) at 6 MPH (5 KT):0
Visibility: 10 mile(s):0
Sky conditions: overcast
Precipitation last hour: A trace
Temperature: 50.0 F (10.0 C)
Dew Point: 44.1 F (6.7 C)
Relative Humidity: 79%
Pressure (altimeter): 30.03 in. Hg (1016 hPa)
Pressure tendency: 0.00 inches (0.1 hPa) lower than three hours ago
ob: KSLE 250856Z AUTO 18005KT 10SM OVC035 10/07 A3003 RMK AO2 RAE05 SLP169 P0000 60000 T01000067 56001
cycle: 9

Station Type Date Time Source
KSLE TAF 2019/05/25 06:42 UTC NOAA

TAF KSLE 250540Z 2506/2606 00000KT P6SM OVC060
FM251200 17004KT P6SM BKN022 OVC035
FM251700 19008KT P6SM OVC025
FM252100 25011KT P6SM OVC025
FM260000 28012KT 6SM -RA OVC015
FM260300 34008KT P6SM -RA OVC025

Example: see airport list